sensor_id;sensor_type;location;lat;lon;timestamp;pressure;altitude;pressure_sealevel;temperature;humidity
57442;BME280;43284;47.042;15.498;2023-06-26T00:02:09;97275.91;;;15.23;95.75
57442;BME280;43284;47.042;15.498;2023-06-26T00:04:34;97274.41;;;15.19;96.13
57442;BME280;43284;47.042;15.498;2023-06-26T00:07:06;97273.88;;;15.14;96.79
57442;BME280;43284;47.042;15.498;2023-06-26T00:09:32;97274.91;;;15.11;96.44
57442;BME280;43284;47.042;15.498;2023-06-26T00:11:57;97272.38;;;15.10;96.56
57442;BME280;43284;47.042;15.498;2023-06-26T00:14:24;97273.34;;;15.09;97.51
57442;BME280;43284;47.042;15.498;2023-06-26T00:16:51;97274.91;;;15.11;99.00
57442;BME280;43284;47.042;15.498;2023-06-26T00:19:17;97276.69;;;15.11;98.59
57442;BME280;43284;47.042;15.498;2023-06-26T00:21:43;97272.47;;;15.08;98.40
57442;BME280;43284;47.042;15.498;2023-06-26T00:24:16;97276.66;;;14.98;97.69
57442;BME280;43284;47.042;15.498;2023-06-26T00:26:43;97277.09;;;15.04;99.68
57442;BME280;43284;47.042;15.498;2023-06-26T00:29:08;97282.56;;;15.01;98.73
57442;BME280;43284;47.042;15.498;2023-06-26T00:31:34;97280.59;;;14.91;97.47
57442;BME280;43284;47.042;15.498;2023-06-26T00:34:01;97274.59;;;14.89;97.61
57442;BME280;43284;47.042;15.498;2023-06-26T00:36:27;97268.59;;;14.87;98.02
57442;BME280;43284;47.042;15.498;2023-06-26T00:38:52;97271.81;;;14.77;97.30
57442;BME280;43284;47.042;15.498;2023-06-26T00:41:18;97269.38;;;14.74;98.12
57442;BME280;43284;47.042;15.498;2023-06-26T00:43:44;97270.59;;;14.69;98.30
57442;BME280;43284;47.042;15.498;2023-06-26T00:46:12;97276.53;;;14.72;100.00
57442;BME280;43284;47.042;15.498;2023-06-26T00:48:39;97277.22;;;14.61;98.19
57442;BME280;43284;47.042;15.498;2023-06-26T00:51:07;97274.50;;;14.63;100.00
57442;BME280;43284;47.042;15.498;2023-06-26T00:53:33;97276.66;;;14.56;98.81
57442;BME280;43284;47.042;15.498;2023-06-26T00:55:59;97264.78;;;14.49;98.54
57442;BME280;43284;47.042;15.498;2023-06-26T00:58:24;97265.91;;;14.45;99.20
57442;BME280;43284;47.042;15.498;2023-06-26T01:00:51;97266.66;;;14.47;99.88
57442;BME280;43284;47.042;15.498;2023-06-26T01:03:17;97261.09;;;14.52;100.00
57442;BME280;43284;47.042;15.498;2023-06-26T01:05:43;97259.44;;;14.51;100.00
57442;BME280;43284;47.042;15.498;2023-06-26T01:08:12;97262.44;;;14.45;99.82
57442;BME280;43284;47.042;15.498;2023-06-26T01:10:39;97258.50;;;14.37;99.41
57442;BME280;43284;47.042;15.498;2023-06-26T01:13:05;97255.34;;;14.32;98.51
57442;BME280;43284;47.042;15.498;2023-06-26T01:15:30;97254.13;;;14.24;98.54
57442;BME280;43284;47.042;15.498;2023-06-26T01:17:57;97255.13;;;14.21;98.94
57442;BME280;43284;47.042;15.498;2023-06-26T01:20:31;97245.66;;;14.18;99.86
57442;BME280;43284;47.042;15.498;2023-06-26T01:23:14;97251.56;;;14.22;100.00
57442;BME280;43284;47.042;15.498;2023-06-26T01:28:34;97244.06;;;14.16;100.00
57442;BME280;43284;47.042;15.498;2023-06-26T01:31:02;97242.00;;;14.07;100.00
57442;BME280;43284;47.042;15.498;2023-06-26T01:33:28;97241.06;;;14.08;100.00
57442;BME280;43284;47.042;15.498;2023-06-26T01:35:54;97239.38;;;14.07;100.00
57442;BME280;43284;47.042;15.498;2023-06-26T01:38:21;97235.63;;;14.11;100.00
57442;BME280;43284;47.042;15.498;2023-06-26T01:40:48;97236.66;;;14.08;100.00
57442;BME280;43284;47.042;15.498;2023-06-26T01:43:24;97229.53;;;14.10;100.00
57442;BME280;43284;47.042;15.498;2023-06-26T01:45:51;97231.00;;;14.14;100.00
57442;BME280;43284;47.042;15.498;2023-06-26T01:48:20;97229.88;;;14.18;100.00
57442;BME280;43284;47.042;15.498;2023-06-26T01:50:51;97228.94;;;14.19;100.00
57442;BME280;43284;47.042;15.498;2023-06-26T01:53:19;97223.88;;;14.16;100.00
57442;BME280;43284;47.042;15.498;2023-06-26T01:55:55;97229.13;;;14.16;100.00
57442;BME280;43284;47.042;15.498;2023-06-26T01:58:25;97230.63;;;14.20;100.00
57442;BME280;43284;47.042;15.498;2023-06-26T02:00:51;97223.56;;;14.21;100.00
57442;BME280;43284;47.042;15.498;2023-06-26T02:03:17;97223.78;;;14.18;100.00
57442;BME280;43284;47.042;15.498;2023-06-26T02:05:43;97215.69;;;14.21;100.00
57442;BME280;43284;47.042;15.498;2023-06-26T02:08:09;97215.97;;;14.16;100.00
57442;BME280;43284;47.042;15.498;2023-06-26T02:10:35;97214.59;;;14.11;100.00
57442;BME280;43284;47.042;15.498;2023-06-26T02:13:01;97214.88;;;14.06;100.00
57442;BME280;43284;47.042;15.498;2023-06-26T02:15:26;97208.88;;;14.04;100.00
57442;BME280;43284;47.042;15.498;2023-06-26T02:17:52;97211.59;;;14.02;100.00
57442;BME280;43284;47.042;15.498;2023-06-26T02:20:17;97219.28;;;13.91;100.00
57442;BME280;43284;47.042;15.498;2023-06-26T02:22:43;97219.56;;;13.87;100.00
57442;BME280;43284;47.042;15.498;2023-06-26T02:25:09;97220.69;;;13.83;100.00
57442;BME280;43284;47.042;15.498;2023-06-26T02:27:38;97218.72;;;13.86;100.00
57442;BME280;43284;47.042;15.498;2023-06-26T02:30:08;97224.63;;;13.90;100.00
57442;BME280;43284;47.042;15.498;2023-06-26T02:32:34;97222.09;;;13.88;100.00
57442;BME280;43284;47.042;15.498;2023-06-26T02:35:00;97221.34;;;13.86;100.00
57442;BME280;43284;47.042;15.498;2023-06-26T02:37:25;97212.53;;;13.87;100.00
57442;BME280;43284;47.042;15.498;2023-06-26T02:39:51;97222.84;;;13.90;100.00
57442;BME280;43284;47.042;15.498;2023-06-26T02:42:16;97222.00;;;13.90;100.00
57442;BME280;43284;47.042;15.498;2023-06-26T02:44:42;97214.22;;;13.88;100.00
57442;BME280;43284;47.042;15.498;2023-06-26T02:47:07;97215.81;;;13.91;100.00
57442;BME280;43284;47.042;15.498;2023-06-26T02:49:33;97220.22;;;13.90;100.00
57442;BME280;43284;47.042;15.498;2023-06-26T02:51:58;97213.19;;;13.91;100.00
57442;BME280;43284;47.042;15.498;2023-06-26T02:54:24;97217.50;;;13.92;100.00
57442;BME280;43284;47.042;15.498;2023-06-26T02:56:49;97213.84;;;13.94;100.00
57442;BME280;43284;47.042;15.498;2023-06-26T02:59:15;97218.34;;;13.92;100.00
57442;BME280;43284;47.042;15.498;2023-06-26T03:01:40;97211.56;;;13.88;100.00
57442;BME280;43284;47.042;15.498;2023-06-26T03:04:06;97219.22;;;13.93;100.00
57442;BME280;43284;47.042;15.498;2023-06-26T03:06:32;97220.31;;;13.89;100.00
57442;BME280;43284;47.042;15.498;2023-06-26T03:08:57;97220.41;;;13.87;100.00
57442;BME280;43284;47.042;15.498;2023-06-26T03:11:23;97215.91;;;13.89;100.00
57442;BME280;43284;47.042;15.498;2023-06-26T03:13:48;97213.19;;;13.91;100.00
57442;BME280;43284;47.042;15.498;2023-06-26T03:16:14;97215.91;;;13.89;100.00
57442;BME280;43284;47.042;15.498;2023-06-26T03:18:40;97213.56;;;13.85;100.00
57442;BME280;43284;47.042;15.498;2023-06-26T03:21:05;97214.50;;;13.84;100.00
57442;BME280;43284;47.042;15.498;2023-06-26T03:23:31;97219.94;;;13.80;100.00
57442;BME280;43284;47.042;15.498;2023-06-26T03:25:56;97218.44;;;13.76;100.00
57442;BME280;43284;47.042;15.498;2023-06-26T03:28:22;97215.13;;;13.73;100.00
57442;BME280;43284;47.042;15.498;2023-06-26T03:30:47;97220.78;;;13.67;100.00
57442;BME280;43284;47.042;15.498;2023-06-26T03:33:13;97222.81;;;13.62;100.00
57442;BME280;43284;47.042;15.498;2023-06-26T03:35:38;97221.91;;;13.63;100.00
57442;BME280;43284;47.042;15.498;2023-06-26T03:38:04;97220.78;;;13.67;100.00
57442;BME280;43284;47.042;15.498;2023-06-26T03:40:30;97227.53;;;13.71;100.00
57442;BME280;43284;47.042;15.498;2023-06-26T03:42:56;97222.00;;;13.75;100.00
57442;BME280;43284;47.042;15.498;2023-06-26T03:45:22;97224.72;;;13.74;100.00
57442;BME280;43284;47.042;15.498;2023-06-26T03:47:47;97221.16;;;13.75;100.00
57442;BME280;43284;47.042;15.498;2023-06-26T03:50:17;97222.56;;;13.80;100.00
57442;BME280;43284;47.042;15.498;2023-06-26T03:52:43;97218.63;;;13.88;100.00
57442;BME280;43284;47.042;15.498;2023-06-26T03:55:08;97213.66;;;13.97;100.00
57442;BME280;43284;47.042;15.498;2023-06-26T03:57:34;97213.47;;;14.00;100.00
57442;BME280;43284;47.042;15.498;2023-06-26T04:00:00;97211.88;;;13.98;100.00
57442;BME280;43284;47.042;15.498;2023-06-26T04:02:25;97217.22;;;13.96;100.00
57442;BME280;43284;47.042;15.498;2023-06-26T04:04:51;97211.03;;;13.97;100.00
57442;BME280;43284;47.042;15.498;2023-06-26T04:07:18;97217.31;;;14.09;100.00
57442;BME280;43284;47.042;15.498;2023-06-26T04:09:44;97222.03;;;14.04;100.00
57442;BME280;43284;47.042;15.498;2023-06-26T04:12:09;97221.16;;;14.04;100.00
57442;BME280;43284;47.042;15.498;2023-06-26T04:14:35;97225.41;;;14.06;100.00
57442;BME280;43284;47.042;15.498;2023-06-26T04:17:01;97226.31;;;14.05;100.00
57442;BME280;43284;47.042;15.498;2023-06-26T04:19:31;97228.03;;;14.06;100.00
57442;BME280;43284;47.042;15.498;2023-06-26T04:21:57;97225.13;;;14.11;100.00
57442;BME280;43284;47.042;15.498;2023-06-26T04:24:22;97226.69;;;14.13;100.00
57442;BME280;43284;47.042;15.498;2023-06-26T04:26:48;97224.75;;;14.17;100.00
57442;BME280;43284;47.042;15.498;2023-06-26T04:29:14;97228.75;;;14.22;100.00
57442;BME280;43284;47.042;15.498;2023-06-26T04:31:40;97231.22;;;14.26;100.00
57442;BME280;43284;47.042;15.498;2023-06-26T04:34:05;97224.03;;;14.28;100.00
57442;BME280;43284;47.042;15.498;2023-06-26T04:36:31;97229.88;;;14.33;100.00
57442;BME280;43284;47.042;15.498;2023-06-26T04:38:58;97229.66;;;14.36;100.00
57442;BME280;43284;47.042;15.498;2023-06-26T04:41:24;97223.19;;;14.41;100.00
57442;BME280;43284;47.042;15.498;2023-06-26T04:43:50;97227.31;;;14.46;100.00
57442;BME280;43284;47.042;15.498;2023-06-26T04:46:15;97232.09;;;14.53;100.00
57442;BME280;43284;47.042;15.498;2023-06-26T04:48:41;97230.06;;;14.58;100.00
57442;BME280;43284;47.042;15.498;2023-06-26T04:51:06;97231.34;;;14.66;100.00
57442;BME280;43284;47.042;15.498;2023-06-26T04:53:32;97230.00;;;14.73;100.00
57442;BME280;43284;47.042;15.498;2023-06-26T04:55:57;97228.66;;;14.80;100.00
57442;BME280;43284;47.042;15.498;2023-06-26T04:58:23;97223.09;;;14.84;100.00
57442;BME280;43284;47.042;15.498;2023-06-26T05:00:49;97230.50;;;14.92;100.00
57442;BME280;43284;47.042;15.498;2023-06-26T05:03:16;97225.59;;;15.00;100.00
57442;BME280;43284;47.042;15.498;2023-06-26T05:05:42;97219.81;;;15.08;100.00
57442;BME280;43284;47.042;15.498;2023-06-26T05:08:18;97216.69;;;15.16;100.00
57442;BME280;43284;47.042;15.498;2023-06-26T05:10:44;97221.44;;;15.23;100.00
57442;BME280;43284;47.042;15.498;2023-06-26T05:13:10;97221.84;;;15.30;99.95
57442;BME280;43284;47.042;15.498;2023-06-26T05:15:36;97219.78;;;15.35;99.32
57442;BME280;43284;47.042;15.498;2023-06-26T05:18:02;97227.91;;;15.45;99.45
57442;BME280;43284;47.042;15.498;2023-06-26T05:20:27;97234.16;;;15.57;100.00
57442;BME280;43284;47.042;15.498;2023-06-26T05:22:53;97221.09;;;15.68;100.00
57442;BME280;43284;47.042;15.498;2023-06-26T05:25:20;97217.09;;;15.75;98.99
57442;BME280;43284;47.042;15.498;2023-06-26T05:27:47;97220.34;;;15.92;93.53
57442;BME280;43284;47.042;15.498;2023-06-26T05:30:13;97216.56;;;16.09;95.00
57442;BME280;43284;47.042;15.498;2023-06-26T05:32:40;97215.06;;;16.17;92.44
57442;BME280;43284;47.042;15.498;2023-06-26T05:35:06;97216.22;;;16.26;91.95
57442;BME280;43284;47.042;15.498;2023-06-26T05:37:33;97210.50;;;16.32;90.45
57442;BME280;43284;47.042;15.498;2023-06-26T05:40:00;97217.03;;;16.39;91.33
57442;BME280;43284;47.042;15.498;2023-06-26T05:42:27;97209.91;;;16.53;92.87
57442;BME280;43284;47.042;15.498;2023-06-26T05:44:53;97214.09;;;16.68;89.85
57442;BME280;43284;47.042;15.498;2023-06-26T05:47:19;97210.06;;;16.75;90.92
57442;BME280;43284;47.042;15.498;2023-06-26T05:49:44;97213.72;;;16.85;90.92
57442;BME280;43284;47.042;15.498;2023-06-26T05:52:10;97215.81;;;16.93;91.39
57442;BME280;43284;47.042;15.498;2023-06-26T05:54:36;97213.09;;;16.95;89.22
57442;BME280;43284;47.042;15.498;2023-06-26T05:57:03;97207.22;;;17.02;90.34
57442;BME280;43284;47.042;15.498;2023-06-26T05:59:31;97204.38;;;17.05;88.65
57442;BME280;43284;47.042;15.498;2023-06-26T06:01:57;97201.97;;;17.14;86.17
57442;BME280;43284;47.042;15.498;2023-06-26T06:04:22;97207.66;;;17.20;85.54
57442;BME280;43284;47.042;15.498;2023-06-26T06:06:48;97214.31;;;17.37;89.52
57442;BME280;43284;47.042;15.498;2023-06-26T06:09:13;97221.31;;;17.49;90.08
57442;BME280;43284;47.042;15.498;2023-06-26T06:11:39;97216.28;;;17.58;89.24
57442;BME280;43284;47.042;15.498;2023-06-26T06:14:06;97218.97;;;17.69;87.76
57442;BME280;43284;47.042;15.498;2023-06-26T06:16:31;97219.50;;;17.85;87.73
57442;BME280;43284;47.042;15.498;2023-06-26T06:18:57;97215.66;;;17.89;86.99
57442;BME280;43284;47.042;15.498;2023-06-26T06:21:22;97216.63;;;18.00;85.85
57442;BME280;43284;47.042;15.498;2023-06-26T06:23:48;97217.59;;;18.10;86.38
57442;BME280;43284;47.042;15.498;2023-06-26T06:26:13;97218.31;;;18.23;84.02
57442;BME280;43284;47.042;15.498;2023-06-26T06:28:39;97219.38;;;18.32;81.20
57442;BME280;43284;47.042;15.498;2023-06-26T06:31:05;97219.88;;;18.37;80.63
57442;BME280;43284;47.042;15.498;2023-06-26T06:33:30;97216.22;;;18.49;83.05
57442;BME280;43284;47.042;15.498;2023-06-26T06:35:56;97217.81;;;18.52;81.22
57442;BME280;43284;47.042;15.498;2023-06-26T06:38:22;97207.44;;;18.60;79.25
57442;BME280;43284;47.042;15.498;2023-06-26T06:40:47;97209.47;;;18.68;79.25
57442;BME280;43284;47.042;15.498;2023-06-26T06:43:13;97210.06;;;18.71;79.11
57442;BME280;43284;47.042;15.498;2023-06-26T06:45:38;97199.13;;;18.76;78.69
57442;BME280;43284;47.042;15.498;2023-06-26T06:48:04;97207.56;;;18.81;78.18
57442;BME280;43284;47.042;15.498;2023-06-26T06:50:30;97205.19;;;18.99;78.85
57442;BME280;43284;47.042;15.498;2023-06-26T06:52:55;97196.88;;;19.04;76.84
57442;BME280;43284;47.042;15.498;2023-06-26T06:55:21;97201.66;;;19.10;77.00
57442;BME280;43284;47.042;15.498;2023-06-26T06:57:49;97195.03;;;19.16;76.25
57442;BME280;43284;47.042;15.498;2023-06-26T07:00:15;97195.38;;;19.22;76.11
57442;BME280;43284;47.042;15.498;2023-06-26T07:02:45;97200.00;;;19.30;76.48
57442;BME280;43284;47.042;15.498;2023-06-26T07:05:11;97203.69;;;19.39;75.63
57442;BME280;43284;47.042;15.498;2023-06-26T07:07:38;97203.06;;;19.46;76.30
57442;BME280;43284;47.042;15.498;2023-06-26T07:10:06;97195.44;;;19.53;74.53
57442;BME280;43284;47.042;15.498;2023-06-26T07:12:33;97196.31;;;19.63;75.06
57442;BME280;43284;47.042;15.498;2023-06-26T07:15:00;97191.97;;;19.73;75.15
57442;BME280;43284;47.042;15.498;2023-06-26T07:17:25;97198.56;;;19.79;74.69
57442;BME280;43284;47.042;15.498;2023-06-26T07:19:51;97192.34;;;19.90;74.45
57442;BME280;43284;47.042;15.498;2023-06-26T07:22:17;97197.69;;;20.00;74.49
57442;BME280;43284;47.042;15.498;2023-06-26T07:24:45;97191.72;;;20.07;73.79
57442;BME280;43284;47.042;15.498;2023-06-26T07:27:11;97195.94;;;20.20;73.14
57442;BME280;43284;47.042;15.498;2023-06-26T07:29:36;97194.31;;;20.28;73.28
57442;BME280;43284;47.042;15.498;2023-06-26T07:32:02;97197.44;;;20.43;73.05
57442;BME280;43284;47.042;15.498;2023-06-26T07:34:27;97188.66;;;20.52;74.01
57442;BME280;43284;47.042;15.498;2023-06-26T07:36:53;97186.47;;;20.57;74.04
57442;BME280;43284;47.042;15.498;2023-06-26T07:39:18;97189.25;;;20.66;73.25
57442;BME280;43284;47.042;15.498;2023-06-26T07:41:44;97189.97;;;20.68;72.56
57442;BME280;43284;47.042;15.498;2023-06-26T07:44:09;97185.94;;;20.73;71.01
57442;BME280;43284;47.042;15.498;2023-06-26T07:46:35;97186.22;;;20.80;70.47
57442;BME280;43284;47.042;15.498;2023-06-26T07:49:00;97191.28;;;20.93;69.37
57442;BME280;43284;47.042;15.498;2023-06-26T07:51:26;97189.88;;;21.08;71.18
57442;BME280;43284;47.042;15.498;2023-06-26T07:53:51;97184.84;;;21.25;70.70
57442;BME280;43284;47.042;15.498;2023-06-26T07:56:17;97197.03;;;21.37;69.31
57442;BME280;43284;47.042;15.498;2023-06-26T07:58:43;97191.31;;;21.42;69.52
57442;BME280;43284;47.042;15.498;2023-06-26T08:01:08;97189.03;;;21.47;67.74
57442;BME280;43284;47.042;15.498;2023-06-26T08:03:34;97191.97;;;21.53;67.51
57442;BME280;43284;47.042;15.498;2023-06-26T08:05:59;97184.00;;;21.63;66.74
57442;BME280;43284;47.042;15.498;2023-06-26T08:08:25;97185.94;;;21.71;63.83
57442;BME280;43284;47.042;15.498;2023-06-26T08:10:50;97180.28;;;21.84;62.39
57442;BME280;43284;47.042;15.498;2023-06-26T08:13:16;97179.00;;;21.97;65.27
57442;BME280;43284;47.042;15.498;2023-06-26T08:15:41;97182.59;;;22.06;67.63
57442;BME280;43284;47.042;15.498;2023-06-26T08:18:07;97180.03;;;22.14;65.70
57442;BME280;43284;47.042;15.498;2023-06-26T08:20:32;97179.34;;;22.22;64.40
57442;BME280;43284;47.042;15.498;2023-06-26T08:23:01;97179.59;;;22.29;64.02
57442;BME280;43284;47.042;15.498;2023-06-26T08:25:26;97184.03;;;22.38;65.36
57442;BME280;43284;47.042;15.498;2023-06-26T08:27:52;97181.31;;;22.48;61.65
57442;BME280;43284;47.042;15.498;2023-06-26T08:30:17;97180.19;;;22.50;58.76
57442;BME280;43284;47.042;15.498;2023-06-26T08:32:43;97181.50;;;22.64;58.94
57442;BME280;43284;47.042;15.498;2023-06-26T08:35:08;97178.94;;;22.72;57.97
57442;BME280;43284;47.042;15.498;2023-06-26T08:37:35;97169.50;;;22.78;58.22
57442;BME280;43284;47.042;15.498;2023-06-26T08:40:01;97173.53;;;22.82;58.68
57442;BME280;43284;47.042;15.498;2023-06-26T08:42:26;97169.59;;;22.86;59.24
57442;BME280;43284;47.042;15.498;2023-06-26T08:44:52;97172.47;;;22.93;60.11
57442;BME280;43284;47.042;15.498;2023-06-26T08:47:18;97173.28;;;23.03;62.35
57442;BME280;43284;47.042;15.498;2023-06-26T08:49:51;97168.09;;;23.19;61.86
57442;BME280;43284;47.042;15.498;2023-06-26T08:52:30;97165.34;;;23.29;60.47
57442;BME280;43284;47.042;15.498;2023-06-26T08:54:59;97163.25;;;23.41;57.06
57442;BME280;43284;47.042;15.498;2023-06-26T08:57:26;97164.84;;;23.52;55.86
57442;BME280;43284;47.042;15.498;2023-06-26T08:59:52;97162.19;;;23.52;57.86
57442;BME280;43284;47.042;15.498;2023-06-26T09:02:18;97167.50;;;23.52;55.82
57442;BME280;43284;47.042;15.498;2023-06-26T09:04:46;97155.53;;;23.56;54.23
57442;BME280;43284;47.042;15.498;2023-06-26T09:07:13;97159.56;;;23.60;54.66
57442;BME280;43284;47.042;15.498;2023-06-26T09:09:38;97143.78;;;23.67;54.26
57442;BME280;43284;47.042;15.498;2023-06-26T09:12:04;97144.75;;;23.83;51.34
57442;BME280;43284;47.042;15.498;2023-06-26T09:14:30;97153.19;;;24.05;58.26
57442;BME280;43284;47.042;15.498;2023-06-26T09:16:56;97142.03;;;24.10;55.83
57442;BME280;43284;47.042;15.498;2023-06-26T09:19:21;97140.75;;;24.22;56.93
57442;BME280;43284;47.042;15.498;2023-06-26T09:21:49;97139.91;;;24.21;55.06
57442;BME280;43284;47.042;15.498;2023-06-26T09:24:16;97139.28;;;24.27;53.64
57442;BME280;43284;47.042;15.498;2023-06-26T09:26:42;97127.81;;;24.43;53.70
57442;BME280;43284;47.042;15.498;2023-06-26T09:29:09;97139.84;;;24.47;56.02
57442;BME280;43284;47.042;15.498;2023-06-26T09:31:37;97138.88;;;24.57;56.67
57442;BME280;43284;47.042;15.498;2023-06-26T09:34:03;97123.38;;;24.60;54.81
57442;BME280;43284;47.042;15.498;2023-06-26T09:36:29;97129.72;;;24.67;50.56
57442;BME280;43284;47.042;15.498;2023-06-26T09:39:02;97124.72;;;24.73;53.99
57442;BME280;43284;47.042;15.498;2023-06-26T09:41:29;97122.56;;;24.76;53.69
57442;BME280;43284;47.042;15.498;2023-06-26T09:43:58;97111.38;;;24.81;51.96
57442;BME280;43284;47.042;15.498;2023-06-26T09:46:26;97109.53;;;24.90;52.39
57442;BME280;43284;47.042;15.498;2023-06-26T09:49:00;97111.72;;;25.02;53.83
57442;BME280;43284;47.042;15.498;2023-06-26T09:51:26;97112.41;;;25.13;53.94
57442;BME280;43284;47.042;15.498;2023-06-26T09:53:52;97103.88;;;25.17;49.57
57442;BME280;43284;47.042;15.498;2023-06-26T09:56:17;97105.91;;;25.23;49.68
57442;BME280;43284;47.042;15.498;2023-06-26T09:58:44;97118.75;;;25.36;52.03
57442;BME280;43284;47.042;15.498;2023-06-26T10:01:09;97105.53;;;25.43;48.26
57442;BME280;43284;47.042;15.498;2023-06-26T10:03:35;97106.03;;;25.46;49.00
57442;BME280;43284;47.042;15.498;2023-06-26T10:06:02;97101.66;;;25.62;47.71
57442;BME280;43284;47.042;15.498;2023-06-26T10:08:28;97101.97;;;25.67;50.08
57442;BME280;43284;47.042;15.498;2023-06-26T10:10:55;97095.97;;;25.65;47.48
57442;BME280;43284;47.042;15.498;2023-06-26T10:13:27;97093.09;;;25.75;48.08
57442;BME280;43284;47.042;15.498;2023-06-26T10:15:59;97101.44;;;25.96;50.98
57442;BME280;43284;47.042;15.498;2023-06-26T10:18:26;97105.47;;;25.92;47.46
57442;BME280;43284;47.042;15.498;2023-06-26T10:20:55;97097.41;;;25.84;47.55
57442;BME280;43284;47.042;15.498;2023-06-26T10:23:22;97102.09;;;25.82;48.79
57442;BME280;43284;47.042;15.498;2023-06-26T10:25:49;97103.34;;;25.63;49.55
57442;BME280;43284;47.042;15.498;2023-06-26T10:28:16;97098.31;;;25.60;51.05
57442;BME280;43284;47.042;15.498;2023-06-26T10:30:43;97102.34;;;25.64;50.19
57442;BME280;43284;47.042;15.498;2023-06-26T10:33:12;97095.66;;;25.60;48.63
57442;BME280;43284;47.042;15.498;2023-06-26T10:35:44;97091.78;;;25.70;50.04
57442;BME280;43284;47.042;15.498;2023-06-26T10:38:10;97094.94;;;25.82;50.10
57442;BME280;43284;47.042;15.498;2023-06-26T10:40:43;97092.44;;;25.89;50.82
57442;BME280;43284;47.042;15.498;2023-06-26T10:43:11;97087.88;;;25.98;50.16
57442;BME280;43284;47.042;15.498;2023-06-26T10:45:43;97092.84;;;26.09;47.69
57442;BME280;43284;47.042;15.498;2023-06-26T10:48:08;97079.94;;;26.13;47.84
57442;BME280;43284;47.042;15.498;2023-06-26T10:50:34;97085.22;;;26.29;48.73
57442;BME280;43284;47.042;15.498;2023-06-26T10:56:04;97080.53;;;26.62;49.70
57442;BME280;43284;47.042;15.498;2023-06-26T10:58:39;97081.59;;;26.76;49.97
57442;BME280;43284;47.042;15.498;2023-06-26T11:03:38;97067.25;;;26.92;48.29
57442;BME280;43284;47.042;15.498;2023-06-26T11:06:11;97069.50;;;27.03;47.23
57442;BME280;43284;47.042;15.498;2023-06-26T11:08:44;97066.81;;;27.03;45.28
57442;BME280;43284;47.042;15.498;2023-06-26T11:11:11;97074.03;;;27.26;49.08
57442;BME280;43284;47.042;15.498;2023-06-26T11:13:37;97073.22;;;27.40;49.47
57442;BME280;43284;47.042;15.498;2023-06-26T11:16:02;97066.56;;;27.51;47.10
57442;BME280;43284;47.042;15.498;2023-06-26T11:18:28;97075.66;;;27.65;47.17
57442;BME280;43284;47.042;15.498;2023-06-26T11:21:12;97074.63;;;27.66;45.44
57442;BME280;43284;47.042;15.498;2023-06-26T11:23:41;97071.19;;;27.57;44.68
57442;BME280;43284;47.042;15.498;2023-06-26T11:26:18;97069.63;;;27.48;46.16
57442;BME280;43284;47.042;15.498;2023-06-26T11:31:29;97068.22;;;27.52;47.50
57442;BME280;43284;47.042;15.498;2023-06-26T11:34:00;97069.16;;;27.74;47.10
57442;BME280;43284;47.042;15.498;2023-06-26T11:36:26;97071.88;;;28.04;47.64
57442;BME280;43284;47.042;15.498;2023-06-26T11:38:53;97070.38;;;28.16;47.55
57442;BME280;43284;47.042;15.498;2023-06-26T11:41:20;97075.31;;;28.12;45.38
57442;BME280;43284;47.042;15.498;2023-06-26T11:43:45;97073.41;;;27.83;44.60
57442;BME280;43284;47.042;15.498;2023-06-26T11:46:11;97070.41;;;27.86;46.46
57442;BME280;43284;47.042;15.498;2023-06-26T11:48:37;97075.47;;;27.81;44.64
57442;BME280;43284;47.042;15.498;2023-06-26T11:51:05;97075.19;;;27.76;46.20
57442;BME280;43284;47.042;15.498;2023-06-26T11:53:31;97070.59;;;27.85;44.54
57442;BME280;43284;47.042;15.498;2023-06-26T11:55:56;97072.41;;;27.84;44.88
57442;BME280;43284;47.042;15.498;2023-06-26T11:58:22;97070.69;;;27.91;45.67
57442;BME280;43284;47.042;15.498;2023-06-26T12:00:48;97063.19;;;27.87;45.46
57442;BME280;43284;47.042;15.498;2023-06-26T12:03:14;97067.44;;;27.96;45.90
57442;BME280;43284;47.042;15.498;2023-06-26T12:05:39;97064.81;;;28.18;44.74
57442;BME280;43284;47.042;15.498;2023-06-26T12:08:06;97062.59;;;28.06;44.00
57442;BME280;43284;47.042;15.498;2023-06-26T12:10:33;97064.81;;;28.18;43.34
57442;BME280;43284;47.042;15.498;2023-06-26T12:12:58;97063.88;;;28.25;45.35
57442;BME280;43284;47.042;15.498;2023-06-26T12:15:27;97064.00;;;28.17;44.04
57442;BME280;43284;47.042;15.498;2023-06-26T12:17:53;97057.41;;;28.05;42.66
57442;BME280;43284;47.042;15.498;2023-06-26T12:20:20;97059.91;;;28.06;44.39
57442;BME280;43284;47.042;15.498;2023-06-26T12:22:47;97060.84;;;27.99;42.83
57442;BME280;43284;47.042;15.498;2023-06-26T12:25:14;97057.06;;;27.93;44.21
57442;BME280;43284;47.042;15.498;2023-06-26T12:27:39;97056.28;;;27.84;44.04
57442;BME280;43284;47.042;15.498;2023-06-26T12:30:05;97060.47;;;27.72;42.85
57442;BME280;43284;47.042;15.498;2023-06-26T12:32:31;97050.66;;;27.79;43.38
57442;BME280;43284;47.042;15.498;2023-06-26T12:34:57;97048.91;;;27.86;46.28
57442;BME280;43284;47.042;15.498;2023-06-26T12:37:23;97041.50;;;28.03;46.59
57442;BME280;43284;47.042;15.498;2023-06-26T12:39:56;97048.00;;;28.30;46.38
57442;BME280;43284;47.042;15.498;2023-06-26T12:42:24;97047.91;;;28.39;43.59
57442;BME280;43284;47.042;15.498;2023-06-26T12:44:51;97045.00;;;28.55;44.25
57442;BME280;43284;47.042;15.498;2023-06-26T12:47:23;97039.69;;;28.62;41.86
57442;BME280;43284;47.042;15.498;2023-06-26T12:49:52;97034.00;;;28.71;42.70
57442;BME280;43284;47.042;15.498;2023-06-26T12:52:18;97040.06;;;28.80;45.30
57442;BME280;43284;47.042;15.498;2023-06-26T12:54:45;97029.16;;;28.45;39.41
57442;BME280;43284;47.042;15.498;2023-06-26T12:57:12;97026.94;;;28.12;40.22